Time;durP1;ratioP1;P1;durP2;ratioP2;P2;SDS_P1;SDS_P2;PMS_P1;PMS_P2;Temp;Humidity;BMP_temperature;BMP_pressure;BME280_temperature;BME280_humidity;BME280_pressure;Samples;Min_cycle;Max_cycle;Signal;HPM_P1;HPM_P2
2022/08/04 00:02:19;;;;;;;;;;;23.50;76.90;;;;;;5116742;28;19937;-71
2022/08/04 00:04:51;;;;;;;;;;;23.50;77.00;;;;;;5116058;28;19912;-70
2022/08/04 00:07:20;;;;;;;;;;;23.50;76.80;;;;;;5116238;28;19914;-68
2022/08/04 00:09:51;;;;;;;;;;;23.40;76.30;;;;;;5116248;28;19916;-70
2022/08/04 00:12:16;;;;;;;;;;;23.50;76.30;;;;;;5116040;28;19964;-72
2022/08/04 00:14:49;;;;;;;;;;;23.50;76.80;;;;;;5116337;28;20349;-68
2022/08/04 00:17:18;;;;;;;;;;;23.40;76.80;;;;;;5116076;28;19908;-71
2022/08/04 00:19:46;;;;;;;;;;;23.50;76.80;;;;;;5115464;28;19915;-70
2022/08/04 00:22:12;;;;;;;;;;;23.40;76.90;;;;;;5116843;28;20007;-71
2022/08/04 00:24:38;;;;;;;;;;;23.40;76.80;;;;;;5116867;28;19908;-70
2022/08/04 00:27:03;;;;;;;;;;;23.40;77.10;;;;;;5117005;28;20362;-71
2022/08/04 00:29:30;;;;;;;;;;;23.40;77.20;;;;;;5116805;28;20013;-70
2022/08/04 00:31:55;;;;;;;;;;;23.40;76.70;;;;;;5116736;28;19954;-68
2022/08/04 00:34:25;;;;;;;;;;;23.30;77.10;;;;;;5115481;28;19908;-70
2022/08/04 00:36:52;;;;;;;;;;;23.40;77.00;;;;;;5116837;28;20392;-70
2022/08/04 00:39:18;;;;;;;;;;;23.30;78.40;;;;;;5116681;28;19952;-71
2022/08/04 00:42:02;;;;;;;;;;;23.30;76.90;;;;;;5116519;28;19911;-70
2022/08/04 00:44:40;;;;;;;;;;;23.30;77.20;;;;;;5116411;28;20400;-70
2022/08/04 00:47:05;;;;;;;;;;;23.30;77.00;;;;;;5116569;28;20002;-71
2022/08/04 00:49:31;;;;;;;;;;;23.30;77.10;;;;;;5116625;28;19961;-71
2022/08/04 00:52:11;;;;;;;;;;;23.30;77.20;;;;;;5116274;28;20006;-67
2022/08/04 00:54:46;;;;;;;;;;;23.20;77.10;;;;;;5116055;28;19914;-70
2022/08/04 00:57:15;;;;;;;;;;;23.20;77.30;;;;;;5116187;28;19908;-69
2022/08/04 00:59:52;;;;;;;;;;;23.20;77.20;;;;;;5116658;28;19908;-70
2022/08/04 01:02:38;;;;;;;;;;;23.20;77.40;;;;;;5115929;28;19940;-67
2022/08/04 01:05:05;;;;;;;;;;;23.10;78.10;;;;;;5116083;28;19908;-70
2022/08/04 01:07:31;;;;;;;;;;;23.10;78.10;;;;;;5115022;28;19908;-70
2022/08/04 01:10:14;;;;;;;;;;;23.00;78.00;;;;;;5116129;28;20346;-69
2022/08/04 01:12:43;;;;;;;;;;;23.00;77.80;;;;;;5116250;28;20353;-71
2022/08/04 01:15:23;;;;;;;;;;;22.90;78.20;;;;;;5115885;28;19907;-70
2022/08/04 01:18:01;;;;;;;;;;;22.90;78.20;;;;;;5115864;28;19969;-70
2022/08/04 01:20:31;;;;;;;;;;;22.90;77.70;;;;;;5115862;28;20013;-70
2022/08/04 01:23:06;;;;;;;;;;;22.80;77.90;;;;;;5116392;28;20373;-69
2022/08/04 01:25:53;;;;;;;;;;;22.80;78.40;;;;;;5115611;28;19998;-71
2022/08/04 01:28:27;;;;;;;;;;;22.70;78.40;;;;;;5115833;28;19914;-71
2022/08/04 01:30:55;;;;;;;;;;;22.70;78.50;;;;;;5114902;28;20346;-76
2022/08/04 01:33:21;;;;;;;;;;;22.60;78.40;;;;;;5115606;28;19915;-70
2022/08/04 01:35:49;;;;;;;;;;;22.60;78.60;;;;;;5114118;28;19920;-71
2022/08/04 01:38:18;;;;;;;;;;;22.50;79.70;;;;;;5115440;28;19911;-67
2022/08/04 01:40:44;;;;;;;;;;;22.50;79.90;;;;;;5115498;28;20022;-70
2022/08/04 01:43:12;;;;;;;;;;;22.50;79.80;;;;;;5115384;28;20289;-70
2022/08/04 01:45:38;;;;;;;;;;;22.40;78.90;;;;;;5115709;28;19914;-70
2022/08/04 01:48:05;;;;;;;;;;;22.40;78.80;;;;;;5115559;28;19994;-74
2022/08/04 01:50:33;;;;;;;;;;;22.40;79.00;;;;;;5097520;28;19980;-71
2022/08/04 01:52:59;;;;;;;;;;;22.30;79.80;;;;;;5115336;28;19908;-70
2022/08/04 01:55:27;;;;;;;;;;;22.30;79.60;;;;;;5114899;28;19907;-71
2022/08/04 01:57:53;;;;;;;;;;;22.30;79.10;;;;;;5115436;28;19908;-70
2022/08/04 02:00:20;;;;;;;;;;;22.30;80.00;;;;;;5115154;28;19965;-71
2022/08/04 02:02:46;;;;;;;;;;;22.30;81.20;;;;;;5115097;28;19920;-71
2022/08/04 02:05:15;;;;;;;;;;;22.20;79.60;;;;;;5114979;28;19960;-70
2022/08/04 02:07:46;;;;;;;;;;;22.20;80.50;;;;;;5115118;28;19990;-71
2022/08/04 02:10:27;;;;;;;;;;;22.20;79.80;;;;;;5115020;28;19908;-71
2022/08/04 02:13:15;;;;;;;;;;;22.20;79.40;;;;;;5115429;28;19908;-70
2022/08/04 02:15:44;;;;;;;;;;;22.20;79.90;;;;;;5111642;28;19958;-71
2022/08/04 02:18:19;;;;;;;;;;;22.20;80.30;;;;;;5112999;28;20350;-70
2022/08/04 02:20:47;;;;;;;;;;;22.20;79.70;;;;;;5114573;28;19912;-70
2022/08/04 02:23:24;;;;;;;;;;;22.20;79.40;;;;;;5114853;28;19943;-71
2022/08/04 02:25:55;;;;;;;;;;;22.20;79.70;;;;;;5114718;28;20396;-71
2022/08/04 02:28:23;;;;;;;;;;;22.30;79.80;;;;;;5114713;28;19961;-71
2022/08/04 02:31:07;;;;;;;;;;;22.30;79.70;;;;;;5113409;28;19908;-71
2022/08/04 02:33:35;;;;;;;;;;;22.30;79.80;;;;;;5114578;28;20396;-71
2022/08/04 02:36:02;;;;;;;;;;;22.30;79.70;;;;;;5114780;28;20306;-71
2022/08/04 02:38:41;;;;;;;;;;;22.30;79.50;;;;;;5113200;28;20351;-71
2022/08/04 02:41:08;;;;;;;;;;;22.40;79.30;;;;;;5114583;28;19996;-71
2022/08/04 02:43:34;;;;;;;;;;;22.40;79.60;;;;;;5114200;28;19911;-75
2022/08/04 02:46:02;;;;;;;;;;;22.40;79.30;;;;;;5114509;28;19976;-70
2022/08/04 02:48:28;;;;;;;;;;;22.40;79.80;;;;;;5114519;28;19995;-71
2022/08/04 02:50:54;;;;;;;;;;;22.40;79.50;;;;;;5114402;28;19912;-71
2022/08/04 02:53:24;;;;;;;;;;;22.30;79.10;;;;;;5114574;28;19908;-71
2022/08/04 02:55:51;;;;;;;;;;;22.30;79.10;;;;;;5113941;28;19953;-71
2022/08/04 02:58:18;;;;;;;;;;;22.40;79.20;;;;;;5114848;28;20257;-71
2022/08/04 03:00:44;;;;;;;;;;;22.30;79.40;;;;;;5114298;28;19912;-71
2022/08/04 03:03:09;;;;;;;;;;;22.30;79.30;;;;;;5114440;28;20380;-71
2022/08/04 03:05:58;;;;;;;;;;;22.30;79.40;;;;;;5114250;28;19912;-71
2022/08/04 03:08:26;;;;;;;;;;;22.40;79.40;;;;;;5103728;28;19908;-71
2022/08/04 03:10:55;;;;;;;;;;;22.40;79.70;;;;;;5114096;28;19990;-71
2022/08/04 03:13:23;;;;;;;;;;;22.40;79.60;;;;;;5114011;28;19915;-71
2022/08/04 03:16:01;;;;;;;;;;;22.40;79.50;;;;;;5114194;28;19998;-71
2022/08/04 03:19:02;;;;;;;;;;;22.40;79.50;;;;;;5114348;28;19908;-71
2022/08/04 03:21:46;;;;;;;;;;;22.40;79.40;;;;;;5091557;28;20298;-71
2022/08/04 03:24:25;;;;;;;;;;;22.40;79.30;;;;;;5112663;28;19924;-72
2022/08/04 03:27:02;;;;;;;;;;;22.50;79.50;;;;;;5114103;28;19962;-71
2022/08/04 03:29:28;;;;;;;;;;;22.50;79.50;;;;;;5115308;28;19968;-70
2022/08/04 03:32:05;;;;;;;;;;;22.50;79.20;;;;;;5118069;28;20340;-71
2022/08/04 03:34:49;;;;;;;;;;;22.50;79.20;;;;;;5118309;28;20060;-70
2022/08/04 03:37:24;;;;;;;;;;;22.50;79.10;;;;;;5117582;28;19988;-70
2022/08/04 03:39:55;;;;;;;;;;;22.50;79.10;;;;;;5117427;28;19912;-71
2022/08/04 03:42:39;;;;;;;;;;;22.60;79.00;;;;;;5117708;28;20418;-71
2022/08/04 03:45:23;;;;;;;;;;;22.60;78.80;;;;;;5118011;28;20006;-71
2022/08/04 03:48:11;;;;;;;;;;;22.60;79.30;;;;;;5117372;28;19914;-70
2022/08/04 03:50:37;;;;;;;;;;;22.60;78.70;;;;;;5117438;28;20006;-70
2022/08/04 03:53:08;;;;;;;;;;;22.60;79.40;;;;;;5117667;28;20377;-71
2022/08/04 03:55:43;;;;;;;;;;;22.60;79.00;;;;;;5117330;28;19908;-70
2022/08/04 03:58:27;;;;;;;;;;;22.60;78.80;;;;;;5117296;28;19933;-72
2022/08/04 04:01:11;;;;;;;;;;;22.70;79.00;;;;;;5117370;28;20342;-70
2022/08/04 04:04:02;;;;;;;;;;;22.70;78.90;;;;;;5117425;28;20052;-73
2022/08/04 04:06:47;;;;;;;;;;;22.70;78.50;;;;;;5115884;28;19961;-70
2022/08/04 04:09:31;;;;;;;;;;;22.70;78.80;;;;;;5117098;28;19914;-71
2022/08/04 04:12:08;;;;;;;;;;;22.70;79.00;;;;;;5117012;28;19912;-71
2022/08/04 04:14:52;;;;;;;;;;;22.70;78.60;;;;;;5116813;28;19908;-70
2022/08/04 04:17:36;;;;;;;;;;;22.70;79.50;;;;;;5117580;28;20064;-71
2022/08/04 04:20:02;;;;;;;;;;;22.70;78.40;;;;;;5116779;28;19952;-71
2022/08/04 04:22:31;;;;;;;;;;;22.70;79.00;;;;;;5115762;28;19912;-71
2022/08/04 04:25:02;;;;;;;;;;;22.70;79.20;;;;;;5116852;27;20362;-71
2022/08/04 04:27:30;;;;;;;;;;;22.70;78.40;;;;;;5116650;28;19908;-71
2022/08/04 04:30:03;;;;;;;;;;;22.80;78.10;;;;;;5115633;28;19908;-70
2022/08/04 04:32:35;;;;;;;;;;;22.80;78.80;;;;;;5116822;28;20002;-70
2022/08/04 04:35:12;;;;;;;;;;;22.80;78.30;;;;;;5116436;28;19912;-71
2022/08/04 04:37:43;;;;;;;;;;;22.90;78.00;;;;;;5116888;28;19926;-71
2022/08/04 04:40:17;;;;;;;;;;;22.90;77.90;;;;;;5115973;28;19951;-71
2022/08/04 04:43:01;;;;;;;;;;;23.00;77.90;;;;;;5115382;28;19926;-70
2022/08/04 04:45:27;;;;;;;;;;;23.10;78.00;;;;;;5116216;28;19915;-71
2022/08/04 04:48:04;;;;;;;;;;;23.00;77.50;;;;;;5116489;28;19908;-72
2022/08/04 04:50:33;;;;;;;;;;;23.10;77.70;;;;;;5116176;28;19977;-70
2022/08/04 04:53:06;;;;;;;;;;;23.10;77.40;;;;;;5116465;28;20311;-71
2022/08/04 04:55:34;;;;;;;;;;;23.10;77.40;;;;;;5116550;28;19908;-71
2022/08/04 04:58:00;;;;;;;;;;;23.20;77.60;;;;;;5116183;28;19915;-70
2022/08/04 05:00:44;;;;;;;;;;;23.20;77.50;;;;;;5115944;28;20127;-71
2022/08/04 05:03:23;;;;;;;;;;;23.20;77.20;;;;;;5115849;28;20422;-70
2022/08/04 05:05:57;;;;;;;;;;;23.30;77.10;;;;;;5116081;28;19919;-71
2022/08/04 05:08:31;;;;;;;;;;;23.30;77.70;;;;;;5116217;28;20269;-71
2022/08/04 05:11:08;;;;;;;;;;;23.30;76.80;;;;;;5115868;28;19922;-69
2022/08/04 05:13:34;;;;;;;;;;;23.30;77.10;;;;;;5115948;28;20093;-70
2022/08/04 05:16:17;;;;;;;;;;;23.30;76.70;;;;;;5116122;28;19935;-71
2022/08/04 05:18:45;;;;;;;;;;;23.30;76.70;;;;;;5115763;28;19915;-70
2022/08/04 05:21:23;;;;;;;;;;;23.30;77.10;;;;;;5115465;28;20377;-70
2022/08/04 05:23:50;;;;;;;;;;;23.30;76.80;;;;;;5115804;28;19912;-71
2022/08/04 05:26:17;;;;;;;;;;;23.30;76.80;;;;;;5115569;28;19914;-70
2022/08/04 05:29:02;;;;;;;;;;;23.30;76.90;;;;;;5115185;28;20386;-71
2022/08/04 05:31:33;;;;;;;;;;;23.30;76.70;;;;;;5115181;28;19955;-72
2022/08/04 05:34:11;;;;;;;;;;;23.30;76.80;;;;;;5114167;28;19915;-70
2022/08/04 05:36:39;;;;;;;;;;;23.30;77.00;;;;;;5115111;28;19923;-71
2022/08/04 05:39:06;;;;;;;;;;;23.30;76.90;;;;;;5114649;28;20308;-70
2022/08/04 05:41:32;;;;;;;;;;;23.30;76.80;;;;;;5114807;28;20361;-72
2022/08/04 05:43:59;;;;;;;;;;;23.20;77.00;;;;;;5115177;28;19918;-69
2022/08/04 05:46:25;;;;;;;;;;;23.10;77.20;;;;;;5114596;28;19912;-70
2022/08/04 05:48:52;;;;;;;;;;;23.00;77.10;;;;;;5114686;28;19907;-71
2022/08/04 05:51:17;;;;;;;;;;;23.00;77.40;;;;;;5114833;28;19999;-71
2022/08/04 05:53:43;;;;;;;;;;;23.00;77.40;;;;;;5115024;28;19969;-70
2022/08/04 05:56:13;;;;;;;;;;;23.10;78.00;;;;;;5114393;28;19976;-70
2022/08/04 05:58:39;;;;;;;;;;;23.00;77.50;;;;;;5115025;28;19908;-70
2022/08/04 06:01:06;;;;;;;;;;;23.00;77.30;;;;;;5114670;28;20293;-71
2022/08/04 06:03:32;;;;;;;;;;;23.00;77.50;;;;;;5114749;28;19916;-70
2022/08/04 06:05:58;;;;;;;;;;;23.00;77.70;;;;;;5113439;28;20023;-70
2022/08/04 06:08:24;;;;;;;;;;;23.00;77.80;;;;;;5114704;28;19955;-73
2022/08/04 06:10:50;;;;;;;;;;;23.00;77.50;;;;;;5114607;28;19957;-70
2022/08/04 06:13:17;;;;;;;;;;;23.00;77.20;;;;;;5115042;28;19912;-71
2022/08/04 06:15:44;;;;;;;;;;;23.00;77.80;;;;;;5114358;28;19911;-71
2022/08/04 06:18:11;;;;;;;;;;;23.10;77.70;;;;;;5114213;28;20259;-71
2022/08/04 06:20:38;;;;;;;;;;;23.10;77.70;;;;;;5113975;28;19927;-70
2022/08/04 06:23:06;;;;;;;;;;;23.10;77.70;;;;;;5113361;28;20366;-69
2022/08/04 06:25:33;;;;;;;;;;;23.00;78.30;;;;;;5114241;28;19907;-69
2022/08/04 06:28:00;;;;;;;;;;;22.90;77.70;;;;;;5113979;28;19912;-72
2022/08/04 06:30:27;;;;;;;;;;;22.90;78.10;;;;;;5112862;28;20416;-74
2022/08/04 06:32:56;;;;;;;;;;;22.90;77.90;;;;;;5113162;28;19976;-72
2022/08/04 06:35:23;;;;;;;;;;;22.90;77.80;;;;;;5112933;28;19927;-70
2022/08/04 06:37:49;;;;;;;;;;;23.00;78.20;;;;;;5111802;28;19915;-71
2022/08/04 06:40:17;;;;;;;;;;;23.10;77.80;;;;;;5112599;28;19923;-71
2022/08/04 06:42:43;;;;;;;;;;;23.20;77.90;;;;;;5112915;28;20006;-72
2022/08/04 06:45:09;;;;;;;;;;;23.20;77.70;;;;;;5107724;28;20338;-78
2022/08/04 06:47:36;;;;;;;;;;;23.30;77.20;;;;;;5111333;28;20123;-75
2022/08/04 06:50:03;;;;;;;;;;;23.40;77.20;;;;;;5112526;28;20327;-78
2022/08/04 06:52:29;;;;;;;;;;;23.50;77.00;;;;;;5112718;28;19985;-76
2022/08/04 06:54:54;;;;;;;;;;;23.60;76.60;;;;;;5112488;28;20298;-78
2022/08/04 06:57:27;;;;;;;;;;;23.70;76.30;;;;;;5112250;28;19955;-76
2022/08/04 06:59:56;;;;;;;;;;;23.70;76.30;;;;;;5110526;28;20386;-77
2022/08/04 07:02:26;;;;;;;;;;;23.80;76.10;;;;;;5112769;28;19920;-79
2022/08/04 07:04:52;;;;;;;;;;;23.80;76.20;;;;;;5115099;28;19918;-76
2022/08/04 07:07:18;;;;;;;;;;;23.90;76.10;;;;;;5117043;28;19908;-76
2022/08/04 07:09:43;;;;;;;;;;;24.00;75.90;;;;;;5116354;28;19911;-76
2022/08/04 07:12:09;;;;;;;;;;;24.10;75.80;;;;;;5116153;28;19916;-78
2022/08/04 07:14:35;;;;;;;;;;;24.20;75.40;;;;;;5116854;28;19914;-75
2022/08/04 07:17:04;;;;;;;;;;;24.30;75.80;;;;;;5114875;28;19907;-74
2022/08/04 07:19:31;;;;;;;;;;;24.30;74.80;;;;;;5114968;28;19908;-77
2022/08/04 07:21:57;;;;;;;;;;;24.40;75.10;;;;;;5116026;28;19912;-76
2022/08/04 07:24:28;;;;;;;;;;;24.40;75.00;;;;;;5115780;28;19944;-74
2022/08/04 07:26:54;;;;;;;;;;;24.50;74.80;;;;;;5115972;28;19908;-75
2022/08/04 07:29:20;;;;;;;;;;;24.60;74.60;;;;;;5116080;28;20376;-74
2022/08/04 07:31:47;;;;;;;;;;;24.60;74.50;;;;;;5116185;28;19912;-78
2022/08/04 07:34:13;;;;;;;;;;;24.60;74.20;;;;;;5116276;28;19916;-75
2022/08/04 07:36:38;;;;;;;;;;;24.60;74.00;;;;;;5116670;28;19949;-75
2022/08/04 07:39:04;;;;;;;;;;;24.60;74.10;;;;;;5116727;28;19907;-77
2022/08/04 07:41:30;;;;;;;;;;;24.60;74.20;;;;;;5117050;28;19922;-78
2022/08/04 07:43:55;;;;;;;;;;;24.60;74.20;;;;;;5117154;28;20006;-76
2022/08/04 07:46:21;;;;;;;;;;;24.70;74.30;;;;;;5116918;28;19908;-75
2022/08/04 07:48:47;;;;;;;;;;;24.70;74.20;;;;;;5117278;28;20392;-77
2022/08/04 07:51:13;;;;;;;;;;;24.80;74.10;;;;;;5116722;28;19908;-76
2022/08/04 07:53:39;;;;;;;;;;;24.80;73.90;;;;;;5116864;28;20049;-78
2022/08/04 07:56:05;;;;;;;;;;;24.80;73.80;;;;;;5116656;28;20350;-77
2022/08/04 07:58:30;;;;;;;;;;;24.80;73.70;;;;;;5116995;28;19914;-75
2022/08/04 08:00:56;;;;;;;;;;;24.80;73.80;;;;;;5116866;28;19939;-76
2022/08/04 08:03:23;;;;;;;;;;;24.90;73.80;;;;;;5117028;28;19911;-75
2022/08/04 08:05:48;;;;;;;;;;;25.00;73.80;;;;;;5116924;28;19915;-77
2022/08/04 08:08:14;;;;;;;;;;;25.00;74.30;;;;;;5115366;28;19908;-77
2022/08/04 08:10:44;;;;;;;;;;;25.10;73.80;;;;;;5116579;28;19965;-76
2022/08/04 08:13:10;;;;;;;;;;;25.20;73.50;;;;;;5116637;28;19908;-77
2022/08/04 08:15:36;;;;;;;;;;;25.30;73.40;;;;;;5115780;28;19911;-76
2022/08/04 08:18:01;;;;;;;;;;;25.30;73.20;;;;;;5116421;28;20459;-77
2022/08/04 08:20:28;;;;;;;;;;;25.30;72.90;;;;;;5116370;28;19919;-75
2022/08/04 08:22:54;;;;;;;;;;;25.30;73.00;;;;;;5114981;28;19912;-76
2022/08/04 08:25:20;;;;;;;;;;;25.20;73.00;;;;;;5116012;28;19915;-75
2022/08/04 08:27:45;;;;;;;;;;;25.10;73.20;;;;;;5115166;28;20003;-78
2022/08/04 08:30:11;;;;;;;;;;;25.20;73.30;;;;;;5116345;28;19907;-77
2022/08/04 08:32:36;;;;;;;;;;;25.10;73.20;;;;;;5116202;28;19908;-76
2022/08/04 08:35:02;;;;;;;;;;;25.20;73.30;;;;;;5115792;28;19907;-78
2022/08/04 08:37:28;;;;;;;;;;;25.10;73.20;;;;;;5116119;28;19912;-78
2022/08/04 08:40:19;;;;;;;;;;;25.10;73.20;;;;;;5115896;28;20006;-76
2022/08/04 08:42:54;;;;;;;;;;;25.10;73.20;;;;;;5092539;28;19915;-77
2022/08/04 08:45:34;;;;;;;;;;;25.20;73.40;;;;;;5115325;28;19954;-71
2022/08/04 08:47:59;;;;;;;;;;;25.20;73.50;;;;;;5115647;28;20017;-76
2022/08/04 08:50:37;;;;;;;;;;;25.20;73.40;;;;;;5116162;28;19983;-75
2022/08/04 08:53:21;;;;;;;;;;;25.30;73.20;;;;;;5114395;28;20262;-75
2022/08/04 08:55:59;;;;;;;;;;;25.40;73.10;;;;;;5115772;28;20407;-75
2022/08/04 08:58:25;;;;;;;;;;;25.40;72.70;;;;;;5114566;28;19912;-78
2022/08/04 09:01:04;;;;;;;;;;;25.50;72.70;;;;;;5114011;28;20111;-76
2022/08/04 09:03:50;;;;;;;;;;;25.50;72.60;;;;;;5115613;28;19918;-75
2022/08/04 09:06:30;;;;;;;;;;;25.50;72.30;;;;;;5114622;28;19916;-77
2022/08/04 09:09:15;;;;;;;;;;;25.60;72.40;;;;;;5113529;28;19911;-75
2022/08/04 09:11:43;;;;;;;;;;;25.70;72.20;;;;;;5115761;28;19908;-74
2022/08/04 09:14:22;;;;;;;;;;;25.70;72.10;;;;;;5115441;28;19969;-74
2022/08/04 09:16:53;;;;;;;;;;;25.80;72.00;;;;;;5115043;28;19907;-76
2022/08/04 09:19:22;;;;;;;;;;;25.80;71.90;;;;;;5113903;28;19911;-76
2022/08/04 09:21:56;;;;;;;;;;;25.90;71.90;;;;;;5113648;28;19919;-76
2022/08/04 09:24:42;;;;;;;;;;;25.90;71.60;;;;;;5113951;28;19926;-78
2022/08/04 09:27:28;;;;;;;;;;;25.90;71.70;;;;;;5105782;28;19908;-73
2022/08/04 09:29:56;;;;;;;;;;;25.90;71.80;;;;;;5104735;28;19916;-75
2022/08/04 09:32:31;;;;;;;;;;;26.00;71.70;;;;;;5109906;28;20337;-75
2022/08/04 09:35:17;;;;;;;;;;;26.00;71.70;;;;;;5113168;28;19919;-77
2022/08/04 09:37:43;;;;;;;;;;;26.00;71.80;;;;;;5113993;28;20433;-74
2022/08/04 09:40:24;;;;;;;;;;;26.10;71.90;;;;;;5113992;28;19995;-75
2022/08/04 09:42:58;;;;;;;;;;;26.10;71.70;;;;;;5113865;28;19911;-76
2022/08/04 09:45:43;;;;;;;;;;;26.20;71.60;;;;;;5112394;28;19911;-78
2022/08/04 09:48:28;;;;;;;;;;;26.30;71.50;;;;;;5113825;28;19923;-75
2022/08/04 09:50:57;;;;;;;;;;;26.40;71.30;;;;;;5101512;28;20315;-75
2022/08/04 09:53:23;;;;;;;;;;;26.50;71.10;;;;;;5111530;28;19950;-77
2022/08/04 09:56:09;;;;;;;;;;;26.50;70.10;;;;;;5114920;28;19955;-75
2022/08/04 09:58:44;;;;;;;;;;;26.50;70.80;;;;;;5114031;28;19908;-77
2022/08/04 10:01:12;;;;;;;;;;;26.60;69.90;;;;;;5113656;28;20636;-78
2022/08/04 10:03:39;;;;;;;;;;;26.60;70.30;;;;;;5112943;28;19923;-77
2022/08/04 10:06:08;;;;;;;;;;;26.60;70.50;;;;;;5113952;28;19961;-78
2022/08/04 10:09:00;;;;;;;;;;;26.60;70.30;;;;;;5114048;28;19908;-78
2022/08/04 10:11:51;;;;;;;;;;;26.70;69.80;;;;;;5112576;28;19912;-76
2022/08/04 10:14:22;;;;;;;;;;;26.70;69.60;;;;;;5114033;28;19947;-76
2022/08/04 10:16:51;;;;;;;;;;;26.80;69.90;;;;;;5112916;28;20006;-75
2022/08/04 10:19:33;;;;;;;;;;;26.80;69.60;;;;;;5113812;28;19973;-76
2022/08/04 10:22:17;;;;;;;;;;;26.80;69.60;;;;;;5113555;28;19954;-76
2022/08/04 10:24:57;;;;;;;;;;;26.90;69.40;;;;;;5113904;28;19919;-74
2022/08/04 10:27:27;;;;;;;;;;;27.00;69.60;;;;;;5113801;28;19915;-77
2022/08/04 10:29:55;;;;;;;;;;;27.10;69.40;;;;;;5113593;28;20282;-77
2022/08/04 10:32:32;;;;;;;;;;;25.30;67.60;;;;;;5113658;28;19911;-76
2022/08/04 10:35:12;;;;;;;;;;;27.10;68.90;;;;;;5113446;28;19918;-76
2022/08/04 10:37:49;;;;;;;;;;;27.10;68.80;;;;;;5113622;28;19919;-74
2022/08/04 10:40:36;;;;;;;;;;;27.10;68.90;;;;;;5113722;28;20259;-76
2022/08/04 10:43:04;;;;;;;;;;;27.10;68.80;;;;;;5113878;28;20041;-78
2022/08/04 10:45:37;;;;;;;;;;;27.00;68.40;;;;;;5114100;28;20361;-76
2022/08/04 10:48:06;;;;;;;;;;;27.00;68.90;;;;;;5113709;28;20048;-75
2022/08/04 10:50:34;;;;;;;;;;;26.90;69.10;;;;;;5114119;28;19952;-75
2022/08/04 10:53:03;;;;;;;;;;;27.00;69.10;;;;;;5113173;28;19908;-74
2022/08/04 10:55:35;;;;;;;;;;;27.00;69.00;;;;;;5114198;28;19912;-76
2022/08/04 10:58:03;;;;;;;;;;;27.10;69.20;;;;;;5113227;28;20381;-76
2022/08/04 11:00:30;;;;;;;;;;;27.10;69.00;;;;;;5114189;28;19952;-75
2022/08/04 11:02:58;;;;;;;;;;;27.20;69.00;;;;;;5114087;28;19916;-74
2022/08/04 11:05:42;;;;;;;;;;;27.30;69.10;;;;;;5114502;28;19908;-76
2022/08/04 11:08:15;;;;;;;;;;;27.30;68.80;;;;;;5114209;28;20450;-75
2022/08/04 11:10:46;;;;;;;;;;;27.30;68.50;;;;;;5114152;28;19911;-77
2022/08/04 11:13:14;;;;;;;;;;;27.30;68.60;;;;;;5114047;28;19908;-77
2022/08/04 11:15:43;;;;;;;;;;;27.30;68.70;;;;;;5114302;28;19908;-75
2022/08/04 11:18:12;;;;;;;;;;;27.30;68.70;;;;;;5112575;28;19911;-75
2022/08/04 11:20:45;;;;;;;;;;;27.30;68.10;;;;;;5112953;28;20326;-76
2022/08/04 11:23:12;;;;;;;;;;;27.30;68.20;;;;;;5114494;28;19918;-76
2022/08/04 11:25:57;;;;;;;;;;;27.30;67.40;;;;;;5112607;28;20257;-77
2022/08/04 11:28:41;;;;;;;;;;;27.40;67.70;;;;;;5113779;28;19939;-75
2022/08/04 11:31:26;;;;;;;;;;;27.40;67.20;;;;;;5113751;28;19938;-76
2022/08/04 11:33:54;;;;;;;;;;;27.40;67.60;;;;;;5113824;28;19951;-76
2022/08/04 11:36:26;;;;;;;;;;;27.50;67.40;;;;;;5114349;28;19928;-75
2022/08/04 11:38:55;;;;;;;;;;;26.80;67.30;;;;;;5114112;28;20074;-76
2022/08/04 11:41:39;;;;;;;;;;;27.60;67.40;;;;;;5113940;28;19919;-75
2022/08/04 11:44:05;;;;;;;;;;;27.70;67.40;;;;;;5113070;28;19912;-75
2022/08/04 11:46:36;;;;;;;;;;;27.80;67.30;;;;;;5113986;28;19965;-74
2022/08/04 11:49:21;;;;;;;;;;;27.80;67.10;;;;;;5113741;28;19912;-76
2022/08/04 11:51:47;;;;;;;;;;;27.90;66.60;;;;;;5116812;28;20339;-75
2022/08/04 11:54:14;;;;;;;;;;;27.90;66.40;;;;;;5117901;28;19914;-75
2022/08/04 11:56:39;;;;;;;;;;;27.90;66.60;;;;;;5117808;28;19914;-75
2022/08/04 11:59:07;;;;;;;;;;;28.00;66.20;;;;;;5117477;28;19907;-75
2022/08/04 12:01:38;;;;;;;;;;;27.00;66.00;;;;;;5117024;28;19912;-76
2022/08/04 12:04:13;;;;;;;;;;;28.10;66.70;;;;;;5116109;28;19911;-74
2022/08/04 12:06:38;;;;;;;;;;;28.20;66.30;;;;;;5117146;28;19908;-75
2022/08/04 12:09:04;;;;;;;;;;;28.20;66.70;;;;;;5117180;28;19912;-77
2022/08/04 12:11:32;;;;;;;;;;;28.10;64.50;;;;;;5115907;28;19908;-75
2022/08/04 12:14:13;;;;;;;;;;;28.10;64.40;;;;;;5116856;28;19908;-77
2022/08/04 12:16:54;;;;;;;;;;;28.00;65.90;;;;;;5117260;28;19907;-75
2022/08/04 12:19:25;;;;;;;;;;;28.00;66.00;;;;;;5116970;28;20341;-75
2022/08/04 12:21:53;;;;;;;;;;;28.00;66.00;;;;;;5116809;28;19937;-76
2022/08/04 12:24:20;;;;;;;;;;;28.00;66.50;;;;;;5117033;28;19923;-75
2022/08/04 12:26:51;;;;;;;;;;;28.10;67.00;;;;;;5116674;28;19915;-75
2022/08/04 12:29:17;;;;;;;;;;;28.10;66.30;;;;;;5116852;28;20454;-75
2022/08/04 12:31:51;;;;;;;;;;;28.20;66.90;;;;;;5116947;28;19942;-76
2022/08/04 12:34:17;;;;;;;;;;;28.20;66.70;;;;;;5116717;28;19915;-75
2022/08/04 12:37:03;;;;;;;;;;;28.30;66.50;;;;;;5117027;28;19928;-75
2022/08/04 12:39:30;;;;;;;;;;;28.30;66.40;;;;;;5116499;28;20284;-75
2022/08/04 12:42:10;;;;;;;;;;;28.40;65.70;;;;;;5116469;28;19922;-75
2022/08/04 12:44:40;;;;;;;;;;;28.40;65.10;;;;;;5116386;28;20350;-75
2022/08/04 12:47:15;;;;;;;;;;;28.50;65.40;;;;;;5116240;28;19915;-75
2022/08/04 12:49:42;;;;;;;;;;;28.60;65.40;;;;;;5116233;28;19908;-76
2022/08/04 12:52:08;;;;;;;;;;;28.60;64.30;;;;;;5116832;28;20251;-75
2022/08/04 12:54:35;;;;;;;;;;;28.70;65.00;;;;;;5115745;28;19999;-75
2022/08/04 12:57:03;;;;;;;;;;;28.80;65.00;;;;;;5114956;28;20355;-76
2022/08/04 12:59:29;;;;;;;;;;;28.90;64.60;;;;;;5116292;28;19908;-76
2022/08/04 13:01:55;;;;;;;;;;;28.90;64.80;;;;;;5115869;28;19934;-74
2022/08/04 13:04:25;;;;;;;;;;;29.10;64.90;;;;;;5114991;28;19951;-75
2022/08/04 13:06:56;;;;;;;;;;;29.20;64.40;;;;;;5114786;28;19908;-76
2022/08/04 13:09:22;;;;;;;;;;;29.30;64.50;;;;;;5116452;28;19908;-75
2022/08/04 13:11:50;;;;;;;;;;;29.40;64.30;;;;;;5115830;28;19992;-76
2022/08/04 13:14:16;;;;;;;;;;;29.50;64.40;;;;;;5116063;28;19911;-75
2022/08/04 13:16:42;;;;;;;;;;;29.60;64.00;;;;;;5115725;28;19915;-76
2022/08/04 13:19:08;;;;;;;;;;;29.60;63.50;;;;;;5115645;28;20329;-76
2022/08/04 13:21:39;;;;;;;;;;;29.70;63.60;;;;;;5114659;28;19912;-76
2022/08/04 13:24:07;;;;;;;;;;;29.70;63.40;;;;;;5116038;28;19912;-76
2022/08/04 13:26:33;;;;;;;;;;;29.60;63.50;;;;;;5115875;28;20370;-74
2022/08/04 13:29:00;;;;;;;;;;;29.60;63.50;;;;;;5115633;28;19947;-76
2022/08/04 13:31:26;;;;;;;;;;;29.60;63.50;;;;;;5115385;28;20392;-76
2022/08/04 13:33:54;;;;;;;;;;;29.50;63.50;;;;;;5116106;28;19939;-74
2022/08/04 13:36:24;;;;;;;;;;;29.50;62.60;;;;;;5115340;28;19923;-76
2022/08/04 13:39:12;;;;;;;;;;;29.50;63.40;;;;;;5115334;28;19915;-75
2022/08/04 13:41:38;;;;;;;;;;;29.40;63.70;;;;;;5115242;27;19964;-75
2022/08/04 13:44:08;;;;;;;;;;;29.30;62.90;;;;;;5115086;28;19916;-75
2022/08/04 13:46:39;;;;;;;;;;;29.30;63.10;;;;;;5113035;28;19907;-75
2022/08/04 13:49:09;;;;;;;;;;;29.30;63.50;;;;;;5114514;28;19915;-75
2022/08/04 13:51:35;;;;;;;;;;;29.30;63.70;;;;;;5114858;28;20275;-74
2022/08/04 13:54:01;;;;;;;;;;;29.40;63.50;;;;;;5114703;28;19952;-75
2022/08/04 13:56:33;;;;;;;;;;;29.50;63.30;;;;;;5114990;28;20273;-76
2022/08/04 13:58:59;;;;;;;;;;;29.50;63.30;;;;;;5114904;28;20387;-76
2022/08/04 14:01:26;;;;;;;;;;;29.40;63.10;;;;;;5115089;28;19983;-75
2022/08/04 14:04:20;;;;;;;;;;;29.30;63.20;;;;;;5114909;28;19911;-77
2022/08/04 14:06:49;;;;;;;;;;;29.20;63.50;;;;;;5100977;28;20033;-77
2022/08/04 14:09:19;;;;;;;;;;;29.10;63.70;;;;;;5114744;28;19912;-75
2022/08/04 14:11:45;;;;;;;;;;;29.10;63.60;;;;;;5114904;28;19912;-75
2022/08/04 14:14:31;;;;;;;;;;;29.00;63.80;;;;;;5112735;28;19953;-74
2022/08/04 14:16:59;;;;;;;;;;;28.80;63.80;;;;;;5114401;28;20006;-75
2022/08/04 14:19:26;;;;;;;;;;;28.60;64.00;;;;;;5114472;28;20285;-75
2022/08/04 14:21:51;;;;;;;;;;;28.50;64.20;;;;;;5113265;28;19919;-75
2022/08/04 14:24:27;;;;;;;;;;;28.40;64.10;;;;;;5114616;28;19912;-76
2022/08/04 14:26:57;;;;;;;;;;;28.20;64.20;;;;;;5114516;28;20361;-76
2022/08/04 14:29:23;;;;;;;;;;;28.10;64.30;;;;;;5113097;28;19908;-76
2022/08/04 14:31:49;;;;;;;;;;;27.90;64.50;;;;;;5114165;28;20365;-76
2022/08/04 14:34:28;;;;;;;;;;;27.80;64.80;;;;;;5113253;28;20002;-75
2022/08/04 14:36:54;;;;;;;;;;;27.60;65.10;;;;;;5114299;28;19931;-76
2022/08/04 14:39:43;;;;;;;;;;;27.50;65.70;;;;;;5114122;28;19908;-75
2022/08/04 14:42:09;;;;;;;;;;;27.30;65.90;;;;;;5106086;28;19976;-76